sensor_id;sensor_type;location;lat;lon;timestamp;temperature;humidity
7704;DHT22;3894;49.700;10.770;2023-10-08T00:00:49;16.70;99.90
7704;DHT22;3894;49.700;10.770;2023-10-08T00:03:16;16.70;99.90
7704;DHT22;3894;49.700;10.770;2023-10-08T00:05:43;16.70;99.90
7704;DHT22;3894;49.700;10.770;2023-10-08T00:08:11;16.70;99.90
7704;DHT22;3894;49.700;10.770;2023-10-08T00:10:39;16.70;99.90
7704;DHT22;3894;49.700;10.770;2023-10-08T00:13:07;16.80;99.90
7704;DHT22;3894;49.700;10.770;2023-10-08T00:15:35;16.70;99.90
7704;DHT22;3894;49.700;10.770;2023-10-08T00:18:05;16.70;99.90
7704;DHT22;3894;49.700;10.770;2023-10-08T00:20:32;16.70;99.90
7704;DHT22;3894;49.700;10.770;2023-10-08T00:23:08;16.80;99.90
7704;DHT22;3894;49.700;10.770;2023-10-08T00:25:34;16.80;99.90
7704;DHT22;3894;49.700;10.770;2023-10-08T00:28:08;16.70;99.90
7704;DHT22;3894;49.700;10.770;2023-10-08T00:30:38;16.70;99.90
7704;DHT22;3894;49.700;10.770;2023-10-08T00:33:04;16.60;99.90
7704;DHT22;3894;49.700;10.770;2023-10-08T00:35:30;16.60;99.90
7704;DHT22;3894;49.700;10.770;2023-10-08T00:37:56;16.60;99.90
7704;DHT22;3894;49.700;10.770;2023-10-08T00:40:35;16.60;99.90
7704;DHT22;3894;49.700;10.770;2023-10-08T00:43:02;16.60;99.90
7704;DHT22;3894;49.700;10.770;2023-10-08T00:45:39;16.60;99.90
7704;DHT22;3894;49.700;10.770;2023-10-08T00:48:11;16.50;99.90
7704;DHT22;3894;49.700;10.770;2023-10-08T00:50:42;16.40;99.90
7704;DHT22;3894;49.700;10.770;2023-10-08T00:53:11;16.40;99.90
7704;DHT22;3894;49.700;10.770;2023-10-08T00:55:48;16.40;99.90
7704;DHT22;3894;49.700;10.770;2023-10-08T00:58:20;16.30;99.90
7704;DHT22;3894;49.700;10.770;2023-10-08T01:00:54;16.30;99.90
7704;DHT22;3894;49.700;10.770;2023-10-08T01:03:26;16.20;99.90
7704;DHT22;3894;49.700;10.770;2023-10-08T01:05:56;16.20;99.90
7704;DHT22;3894;49.700;10.770;2023-10-08T01:08:22;16.20;99.90
7704;DHT22;3894;49.700;10.770;2023-10-08T01:11:16;16.30;99.90
7704;DHT22;3894;49.700;10.770;2023-10-08T01:13:42;16.30;99.90
7704;DHT22;3894;49.700;10.770;2023-10-08T01:16:11;16.30;99.90
7704;DHT22;3894;49.700;10.770;2023-10-08T01:18:36;16.30;99.90
7704;DHT22;3894;49.700;10.770;2023-10-08T01:21:02;16.30;99.90
7704;DHT22;3894;49.700;10.770;2023-10-08T01:23:33;16.30;99.90
7704;DHT22;3894;49.700;10.770;2023-10-08T01:25:59;16.30;99.90
7704;DHT22;3894;49.700;10.770;2023-10-08T01:28:36;16.30;99.90
7704;DHT22;3894;49.700;10.770;2023-10-08T01:31:02;16.30;99.90
7704;DHT22;3894;49.700;10.770;2023-10-08T01:33:30;16.30;99.90
7704;DHT22;3894;49.700;10.770;2023-10-08T01:35:57;16.30;99.90
7704;DHT22;3894;49.700;10.770;2023-10-08T01:38:29;16.30;99.90
7704;DHT22;3894;49.700;10.770;2023-10-08T01:40:55;16.30;99.90
7704;DHT22;3894;49.700;10.770;2023-10-08T01:43:22;16.20;99.90
7704;DHT22;3894;49.700;10.770;2023-10-08T01:45:48;16.30;99.90
7704;DHT22;3894;49.700;10.770;2023-10-08T01:48:15;16.30;99.90
7704;DHT22;3894;49.700;10.770;2023-10-08T01:50:48;16.30;99.90
7704;DHT22;3894;49.700;10.770;2023-10-08T01:53:15;16.30;99.90
7704;DHT22;3894;49.700;10.770;2023-10-08T01:55:41;16.30;99.90
7704;DHT22;3894;49.700;10.770;2023-10-08T01:58:15;16.30;99.90
7704;DHT22;3894;49.700;10.770;2023-10-08T02:00:45;16.30;99.90
7704;DHT22;3894;49.700;10.770;2023-10-08T02:03:12;16.30;99.90
7704;DHT22;3894;49.700;10.770;2023-10-08T02:05:41;16.20;99.90
7704;DHT22;3894;49.700;10.770;2023-10-08T02:08:08;16.20;99.90
7704;DHT22;3894;49.700;10.770;2023-10-08T02:10:34;16.20;99.90
7704;DHT22;3894;49.700;10.770;2023-10-08T02:13:01;16.20;99.90
7704;DHT22;3894;49.700;10.770;2023-10-08T02:15:27;16.20;99.90
7704;DHT22;3894;49.700;10.770;2023-10-08T02:17:52;16.20;99.90
7704;DHT22;3894;49.700;10.770;2023-10-08T02:20:20;16.20;99.90
7704;DHT22;3894;49.700;10.770;2023-10-08T02:22:47;16.20;99.90
7704;DHT22;3894;49.700;10.770;2023-10-08T02:25:14;16.20;99.90
7704;DHT22;3894;49.700;10.770;2023-10-08T02:27:40;16.20;99.90
7704;DHT22;3894;49.700;10.770;2023-10-08T02:30:07;16.10;99.90
7704;DHT22;3894;49.700;10.770;2023-10-08T02:32:34;16.10;99.90
7704;DHT22;3894;49.700;10.770;2023-10-08T02:35:02;16.10;99.90
7704;DHT22;3894;49.700;10.770;2023-10-08T02:37:28;16.10;99.90
7704;DHT22;3894;49.700;10.770;2023-10-08T02:39:53;16.00;99.90
7704;DHT22;3894;49.700;10.770;2023-10-08T02:42:20;16.00;99.90
7704;DHT22;3894;49.700;10.770;2023-10-08T02:44:47;16.00;99.90
7704;DHT22;3894;49.700;10.770;2023-10-08T02:47:12;15.90;99.90
7704;DHT22;3894;49.700;10.770;2023-10-08T02:49:46;15.90;99.90
7704;DHT22;3894;49.700;10.770;2023-10-08T02:52:14;15.90;99.90
7704;DHT22;3894;49.700;10.770;2023-10-08T02:54:41;15.80;99.90
7704;DHT22;3894;49.700;10.770;2023-10-08T02:57:07;15.80;99.90
7704;DHT22;3894;49.700;10.770;2023-10-08T02:59:36;15.80;99.90
7704;DHT22;3894;49.700;10.770;2023-10-08T03:02:11;15.80;99.90
7704;DHT22;3894;49.700;10.770;2023-10-08T03:04:44;15.80;99.90
7704;DHT22;3894;49.700;10.770;2023-10-08T03:07:11;15.80;99.90
7704;DHT22;3894;49.700;10.770;2023-10-08T03:09:47;15.80;99.90
7704;DHT22;3894;49.700;10.770;2023-10-08T03:12:15;15.80;99.90
7704;DHT22;3894;49.700;10.770;2023-10-08T03:14:40;15.80;99.90
7704;DHT22;3894;49.700;10.770;2023-10-08T03:17:30;15.80;99.90
7704;DHT22;3894;49.700;10.770;2023-10-08T03:19:56;15.80;99.90
7704;DHT22;3894;49.700;10.770;2023-10-08T03:22:44;15.80;99.90
7704;DHT22;3894;49.700;10.770;2023-10-08T03:25:12;15.80;99.90
7704;DHT22;3894;49.700;10.770;2023-10-08T03:27:42;15.80;99.90
7704;DHT22;3894;49.700;10.770;2023-10-08T03:30:08;15.80;99.90
7704;DHT22;3894;49.700;10.770;2023-10-08T03:32:40;15.80;99.90
7704;DHT22;3894;49.700;10.770;2023-10-08T03:35:07;15.80;99.90
7704;DHT22;3894;49.700;10.770;2023-10-08T03:37:36;15.80;99.90
7704;DHT22;3894;49.700;10.770;2023-10-08T03:40:07;15.80;99.90
7704;DHT22;3894;49.700;10.770;2023-10-08T03:42:49;15.70;99.90
7704;DHT22;3894;49.700;10.770;2023-10-08T03:45:15;15.70;99.90
7704;DHT22;3894;49.700;10.770;2023-10-08T03:47:48;15.70;99.90
7704;DHT22;3894;49.700;10.770;2023-10-08T03:50:29;15.70;99.90
7704;DHT22;3894;49.700;10.770;2023-10-08T03:53:09;15.70;99.90
7704;DHT22;3894;49.700;10.770;2023-10-08T03:55:38;15.70;99.90
7704;DHT22;3894;49.700;10.770;2023-10-08T03:58:07;15.60;99.90
7704;DHT22;3894;49.700;10.770;2023-10-08T04:00:39;15.60;99.90
7704;DHT22;3894;49.700;10.770;2023-10-08T04:03:08;15.60;99.90
7704;DHT22;3894;49.700;10.770;2023-10-08T04:05:38;15.60;99.90
7704;DHT22;3894;49.700;10.770;2023-10-08T04:08:17;15.60;99.90
7704;DHT22;3894;49.700;10.770;2023-10-08T04:10:44;15.60;99.90
7704;DHT22;3894;49.700;10.770;2023-10-08T04:13:10;15.60;99.90
7704;DHT22;3894;49.700;10.770;2023-10-08T04:15:36;15.60;99.90
7704;DHT22;3894;49.700;10.770;2023-10-08T04:18:07;15.60;99.90
7704;DHT22;3894;49.700;10.770;2023-10-08T04:20:33;15.50;99.90
7704;DHT22;3894;49.700;10.770;2023-10-08T04:23:06;15.50;99.90
7704;DHT22;3894;49.700;10.770;2023-10-08T04:25:39;15.50;99.90
7704;DHT22;3894;49.700;10.770;2023-10-08T04:28:07;15.50;99.90
7704;DHT22;3894;49.700;10.770;2023-10-08T04:30:38;15.50;99.90
7704;DHT22;3894;49.700;10.770;2023-10-08T04:33:07;15.40;99.90
7704;DHT22;3894;49.700;10.770;2023-10-08T04:35:37;15.40;99.90
7704;DHT22;3894;49.700;10.770;2023-10-08T04:38:09;15.40;99.90
7704;DHT22;3894;49.700;10.770;2023-10-08T04:40:36;15.40;99.90
7704;DHT22;3894;49.700;10.770;2023-10-08T04:43:18;15.40;99.90
7704;DHT22;3894;49.700;10.770;2023-10-08T04:45:57;15.40;99.90
7704;DHT22;3894;49.700;10.770;2023-10-08T04:48:26;15.30;99.90
7704;DHT22;3894;49.700;10.770;2023-10-08T04:50:55;15.30;99.90
7704;DHT22;3894;49.700;10.770;2023-10-08T04:53:25;15.30;99.90
7704;DHT22;3894;49.700;10.770;2023-10-08T04:56:00;15.30;99.90
7704;DHT22;3894;49.700;10.770;2023-10-08T04:58:32;15.20;99.90
7704;DHT22;3894;49.700;10.770;2023-10-08T05:01:02;15.20;99.90
7704;DHT22;3894;49.700;10.770;2023-10-08T05:03:53;15.20;99.90
7704;DHT22;3894;49.700;10.770;2023-10-08T05:06:24;15.10;99.90
7704;DHT22;3894;49.700;10.770;2023-10-08T05:09:03;15.10;99.90
7704;DHT22;3894;49.700;10.770;2023-10-08T05:11:45;15.10;99.90
7704;DHT22;3894;49.700;10.770;2023-10-08T05:14:18;15.10;99.90
7704;DHT22;3894;49.700;10.770;2023-10-08T05:16:55;15.00;99.90
7704;DHT22;3894;49.700;10.770;2023-10-08T05:19:40;15.00;99.90
7704;DHT22;3894;49.700;10.770;2023-10-08T05:22:08;15.00;99.90
7704;DHT22;3894;49.700;10.770;2023-10-08T05:24:52;15.00;99.90
7704;DHT22;3894;49.700;10.770;2023-10-08T05:27:38;15.00;99.90
7704;DHT22;3894;49.700;10.770;2023-10-08T05:30:26;15.00;99.90
7704;DHT22;3894;49.700;10.770;2023-10-08T05:33:08;14.90;99.90
7704;DHT22;3894;49.700;10.770;2023-10-08T05:35:45;14.90;99.90
7704;DHT22;3894;49.700;10.770;2023-10-08T05:38:13;14.80;99.90
7704;DHT22;3894;49.700;10.770;2023-10-08T05:40:43;14.80;99.90
7704;DHT22;3894;49.700;10.770;2023-10-08T05:46:10;14.70;99.90
7704;DHT22;3894;49.700;10.770;2023-10-08T05:49:01;14.70;99.90
7704;DHT22;3894;49.700;10.770;2023-10-08T05:51:40;14.70;99.90
7704;DHT22;3894;49.700;10.770;2023-10-08T05:54:13;14.70;99.90
7704;DHT22;3894;49.700;10.770;2023-10-08T05:56:59;14.70;99.90
7704;DHT22;3894;49.700;10.770;2023-10-08T06:02:30;14.70;99.90
7704;DHT22;3894;49.700;10.770;2023-10-08T06:05:06;14.70;99.90
7704;DHT22;3894;49.700;10.770;2023-10-08T06:07:51;14.70;99.90
7704;DHT22;3894;49.700;10.770;2023-10-08T06:10:19;14.70;99.90
7704;DHT22;3894;49.700;10.770;2023-10-08T06:13:01;14.70;99.90
7704;DHT22;3894;49.700;10.770;2023-10-08T06:15:49;14.80;99.90
7704;DHT22;3894;49.700;10.770;2023-10-08T06:20:55;14.90;99.90
7704;DHT22;3894;49.700;10.770;2023-10-08T06:23:22;15.00;99.90
7704;DHT22;3894;49.700;10.770;2023-10-08T06:25:52;15.00;99.90
7704;DHT22;3894;49.700;10.770;2023-10-08T06:28:25;15.00;99.90
7704;DHT22;3894;49.700;10.770;2023-10-08T06:30:53;15.10;99.90
7704;DHT22;3894;49.700;10.770;2023-10-08T06:33:19;15.10;99.90
7704;DHT22;3894;49.700;10.770;2023-10-08T06:35:44;15.10;99.90
7704;DHT22;3894;49.700;10.770;2023-10-08T06:38:11;15.10;99.90
7704;DHT22;3894;49.700;10.770;2023-10-08T06:40:37;15.10;99.90
7704;DHT22;3894;49.700;10.770;2023-10-08T06:43:03;15.10;99.90
7704;DHT22;3894;49.700;10.770;2023-10-08T06:45:44;15.10;99.90
7704;DHT22;3894;49.700;10.770;2023-10-08T06:48:13;15.10;99.90
7704;DHT22;3894;49.700;10.770;2023-10-08T06:50:51;15.20;99.90
7704;DHT22;3894;49.700;10.770;2023-10-08T06:53:20;15.20;99.90
7704;DHT22;3894;49.700;10.770;2023-10-08T06:55:47;15.20;99.90
7704;DHT22;3894;49.700;10.770;2023-10-08T06:58:25;15.30;99.90
7704;DHT22;3894;49.700;10.770;2023-10-08T07:00:52;15.40;99.90
7704;DHT22;3894;49.700;10.770;2023-10-08T07:03:18;15.40;99.90
7704;DHT22;3894;49.700;10.770;2023-10-08T07:05:45;15.40;99.90
7704;DHT22;3894;49.700;10.770;2023-10-08T07:08:20;15.50;99.90
7704;DHT22;3894;49.700;10.770;2023-10-08T07:10:51;15.60;99.90
7704;DHT22;3894;49.700;10.770;2023-10-08T07:13:17;15.70;99.90
7704;DHT22;3894;49.700;10.770;2023-10-08T07:15:44;15.70;99.90
7704;DHT22;3894;49.700;10.770;2023-10-08T07:18:11;15.70;99.90
7704;DHT22;3894;49.700;10.770;2023-10-08T07:20:39;15.60;99.90
7704;DHT22;3894;49.700;10.770;2023-10-08T07:23:07;15.60;99.90
7704;DHT22;3894;49.700;10.770;2023-10-08T07:25:51;15.70;99.90
7704;DHT22;3894;49.700;10.770;2023-10-08T07:28:18;15.70;99.90
7704;DHT22;3894;49.700;10.770;2023-10-08T07:30:45;15.70;99.90
7704;DHT22;3894;49.700;10.770;2023-10-08T07:33:11;15.80;99.90
7704;DHT22;3894;49.700;10.770;2023-10-08T07:35:47;15.80;99.90
7704;DHT22;3894;49.700;10.770;2023-10-08T07:38:40;15.90;99.90
7704;DHT22;3894;49.700;10.770;2023-10-08T07:41:12;15.90;99.90
7704;DHT22;3894;49.700;10.770;2023-10-08T07:43:43;15.90;99.90
7704;DHT22;3894;49.700;10.770;2023-10-08T07:46:10;15.90;99.90
7704;DHT22;3894;49.700;10.770;2023-10-08T07:48:36;16.00;99.90
7704;DHT22;3894;49.700;10.770;2023-10-08T07:51:07;16.10;99.90
7704;DHT22;3894;49.700;10.770;2023-10-08T07:53:33;16.10;99.90
7704;DHT22;3894;49.700;10.770;2023-10-08T07:56:06;16.20;99.90
7704;DHT22;3894;49.700;10.770;2023-10-08T07:58:35;16.20;99.90
7704;DHT22;3894;49.700;10.770;2023-10-08T08:01:06;16.30;99.90
7704;DHT22;3894;49.700;10.770;2023-10-08T08:03:36;16.30;99.90
7704;DHT22;3894;49.700;10.770;2023-10-08T08:06:08;16.30;99.90
7704;DHT22;3894;49.700;10.770;2023-10-08T08:08:38;16.30;99.90
7704;DHT22;3894;49.700;10.770;2023-10-08T08:11:08;16.30;99.90
7704;DHT22;3894;49.700;10.770;2023-10-08T08:13:43;16.50;99.90
7704;DHT22;3894;49.700;10.770;2023-10-08T08:16:12;17.00;99.90
7704;DHT22;3894;49.700;10.770;2023-10-08T08:18:47;17.20;99.90
7704;DHT22;3894;49.700;10.770;2023-10-08T08:21:14;17.20;99.90
7704;DHT22;3894;49.700;10.770;2023-10-08T08:23:46;17.10;99.90
7704;DHT22;3894;49.700;10.770;2023-10-08T08:26:22;17.00;99.90
7704;DHT22;3894;49.700;10.770;2023-10-08T08:28:59;17.00;99.90
7704;DHT22;3894;49.700;10.770;2023-10-08T08:31:25;16.90;99.90
7704;DHT22;3894;49.700;10.770;2023-10-08T08:33:52;16.90;99.90
7704;DHT22;3894;49.700;10.770;2023-10-08T08:36:28;16.80;99.90
7704;DHT22;3894;49.700;10.770;2023-10-08T08:38:54;16.80;99.90
7704;DHT22;3894;49.700;10.770;2023-10-08T08:41:20;16.70;99.90
7704;DHT22;3894;49.700;10.770;2023-10-08T08:43:50;16.70;99.90
7704;DHT22;3894;49.700;10.770;2023-10-08T08:48:54;16.70;99.90
7704;DHT22;3894;49.700;10.770;2023-10-08T08:51:21;16.70;99.90
7704;DHT22;3894;49.700;10.770;2023-10-08T08:53:49;16.70;99.90
7704;DHT22;3894;49.700;10.770;2023-10-08T08:56:15;16.70;99.90
7704;DHT22;3894;49.700;10.770;2023-10-08T08:58:42;16.60;99.90
7704;DHT22;3894;49.700;10.770;2023-10-08T09:01:12;16.70;99.90
7704;DHT22;3894;49.700;10.770;2023-10-08T09:03:38;16.60;99.90
7704;DHT22;3894;49.700;10.770;2023-10-08T09:06:05;16.60;99.90
7704;DHT22;3894;49.700;10.770;2023-10-08T09:08:37;16.60;99.90
7704;DHT22;3894;49.700;10.770;2023-10-08T09:11:07;16.60;99.90
7704;DHT22;3894;49.700;10.770;2023-10-08T09:13:34;16.60;99.90
7704;DHT22;3894;49.700;10.770;2023-10-08T09:16:06;16.70;99.90
7704;DHT22;3894;49.700;10.770;2023-10-08T09:18:32;16.70;99.90
7704;DHT22;3894;49.700;10.770;2023-10-08T09:21:08;16.70;99.90
7704;DHT22;3894;49.700;10.770;2023-10-08T09:23:43;16.80;99.90
7704;DHT22;3894;49.700;10.770;2023-10-08T09:26:14;16.90;99.90
7704;DHT22;3894;49.700;10.770;2023-10-08T09:28:47;17.00;99.90
7704;DHT22;3894;49.700;10.770;2023-10-08T09:31:14;17.10;99.90
7704;DHT22;3894;49.700;10.770;2023-10-08T09:33:40;17.10;99.90
7704;DHT22;3894;49.700;10.770;2023-10-08T09:36:07;17.10;99.90
7704;DHT22;3894;49.700;10.770;2023-10-08T09:38:37;17.00;99.90
7704;DHT22;3894;49.700;10.770;2023-10-08T09:41:03;17.00;99.90
7704;DHT22;3894;49.700;10.770;2023-10-08T09:43:29;17.00;99.90
7704;DHT22;3894;49.700;10.770;2023-10-08T09:46:12;17.00;99.90
7704;DHT22;3894;49.700;10.770;2023-10-08T09:48:41;17.00;99.90
7704;DHT22;3894;49.700;10.770;2023-10-08T09:51:10;17.00;99.90
7704;DHT22;3894;49.700;10.770;2023-10-08T09:56:36;17.00;99.90
7704;DHT22;3894;49.700;10.770;2023-10-08T09:59:02;17.10;99.90
7704;DHT22;3894;49.700;10.770;2023-10-08T10:01:28;17.10;99.90
7704;DHT22;3894;49.700;10.770;2023-10-08T10:03:55;17.20;99.90
7704;DHT22;3894;49.700;10.770;2023-10-08T10:06:20;17.30;99.90
7704;DHT22;3894;49.700;10.770;2023-10-08T10:08:48;17.40;99.90
7704;DHT22;3894;49.700;10.770;2023-10-08T10:11:15;17.50;99.90
7704;DHT22;3894;49.700;10.770;2023-10-08T10:13:49;17.50;99.90
7704;DHT22;3894;49.700;10.770;2023-10-08T10:16:21;17.60;99.90
7704;DHT22;3894;49.700;10.770;2023-10-08T10:18:49;17.60;99.90
7704;DHT22;3894;49.700;10.770;2023-10-08T10:23:42;17.60;99.90
7704;DHT22;3894;49.700;10.770;2023-10-08T10:26:31;17.50;99.90
7704;DHT22;3894;49.700;10.770;2023-10-08T10:34:14;17.50;99.90
7704;DHT22;3894;49.700;10.770;2023-10-08T10:36:42;17.50;99.90
7704;DHT22;3894;49.700;10.770;2023-10-08T10:39:11;17.50;99.90
7704;DHT22;3894;49.700;10.770;2023-10-08T10:41:47;17.40;99.90
7704;DHT22;3894;49.700;10.770;2023-10-08T10:44:16;17.40;99.90
7704;DHT22;3894;49.700;10.770;2023-10-08T10:46:46;17.40;99.90
7704;DHT22;3894;49.700;10.770;2023-10-08T10:49:38;17.40;99.90
7704;DHT22;3894;49.700;10.770;2023-10-08T10:52:26;17.40;99.90
7704;DHT22;3894;49.700;10.770;2023-10-08T10:55:07;17.40;99.90
7704;DHT22;3894;49.700;10.770;2023-10-08T10:57:57;17.40;99.90
7704;DHT22;3894;49.700;10.770;2023-10-08T11:00:42;17.40;99.90
7704;DHT22;3894;49.700;10.770;2023-10-08T11:03:08;17.50;99.90
7704;DHT22;3894;49.700;10.770;2023-10-08T11:05:56;17.60;99.90
7704;DHT22;3894;49.700;10.770;2023-10-08T11:08:25;17.60;99.90
7704;DHT22;3894;49.700;10.770;2023-10-08T11:10:52;17.70;99.90
7704;DHT22;3894;49.700;10.770;2023-10-08T11:13:21;17.80;99.90
7704;DHT22;3894;49.700;10.770;2023-10-08T11:15:50;17.80;99.90
7704;DHT22;3894;49.700;10.770;2023-10-08T11:18:26;17.90;99.90
7704;DHT22;3894;49.700;10.770;2023-10-08T11:21:06;18.00;99.90
7704;DHT22;3894;49.700;10.770;2023-10-08T11:23:57;18.00;99.90
7704;DHT22;3894;49.700;10.770;2023-10-08T11:26:25;18.20;99.90
7704;DHT22;3894;49.700;10.770;2023-10-08T11:29:01;18.20;99.90
7704;DHT22;3894;49.700;10.770;2023-10-08T11:31:29;18.20;99.90
7704;DHT22;3894;49.700;10.770;2023-10-08T11:34:05;18.60;99.90
7704;DHT22;3894;49.700;10.770;2023-10-08T11:36:36;19.20;99.90
7704;DHT22;3894;49.700;10.770;2023-10-08T11:56:53;18.60;99.90
7704;DHT22;3894;49.700;10.770;2023-10-08T11:59:31;18.60;99.90
7704;DHT22;3894;49.700;10.770;2023-10-08T12:02:31;18.60;99.90
7704;DHT22;3894;49.700;10.770;2023-10-08T12:08:44;18.50;99.90
7704;DHT22;3894;49.700;10.770;2023-10-08T12:11:59;18.40;99.90
7704;DHT22;3894;49.700;10.770;2023-10-08T12:14:57;18.40;99.90
7704;DHT22;3894;49.700;10.770;2023-10-08T12:17:40;18.40;99.90
7704;DHT22;3894;49.700;10.770;2023-10-08T12:23:52;18.40;99.90
7704;DHT22;3894;49.700;10.770;2023-10-08T12:27:02;18.30;99.90
7704;DHT22;3894;49.700;10.770;2023-10-08T12:29:42;18.20;99.90
7704;DHT22;3894;49.700;10.770;2023-10-08T12:32:46;18.20;99.90
7704;DHT22;3894;49.700;10.770;2023-10-08T12:39:00;18.20;99.90
7704;DHT22;3894;49.700;10.770;2023-10-08T12:45:02;18.20;99.90
7704;DHT22;3894;49.700;10.770;2023-10-08T12:57:52;18.00;99.90
7704;DHT22;3894;49.700;10.770;2023-10-08T13:00:22;18.10;99.90
7704;DHT22;3894;49.700;10.770;2023-10-08T13:02:49;18.10;99.90
7704;DHT22;3894;49.700;10.770;2023-10-08T13:05:21;18.00;99.90
7704;DHT22;3894;49.700;10.770;2023-10-08T13:07:54;18.00;99.90
7704;DHT22;3894;49.700;10.770;2023-10-08T13:10:21;18.00;99.90
7704;DHT22;3894;49.700;10.770;2023-10-08T13:12:48;18.00;99.90
7704;DHT22;3894;49.700;10.770;2023-10-08T13:15:13;18.00;99.90
7704;DHT22;3894;49.700;10.770;2023-10-08T13:17:39;18.00;99.90
7704;DHT22;3894;49.700;10.770;2023-10-08T13:20:12;18.00;99.90
7704;DHT22;3894;49.700;10.770;2023-10-08T13:22:40;18.00;99.90
7704;DHT22;3894;49.700;10.770;2023-10-08T13:25:07;18.00;99.90
7704;DHT22;3894;49.700;10.770;2023-10-08T13:27:33;18.00;99.90
7704;DHT22;3894;49.700;10.770;2023-10-08T13:29:59;17.90;99.90
7704;DHT22;3894;49.700;10.770;2023-10-08T13:32:25;17.80;99.90
7704;DHT22;3894;49.700;10.770;2023-10-08T13:34:51;17.70;99.90
7704;DHT22;3894;49.700;10.770;2023-10-08T13:37:17;17.50;99.90
7704;DHT22;3894;49.700;10.770;2023-10-08T13:39:42;17.40;99.90
7704;DHT22;3894;49.700;10.770;2023-10-08T13:42:08;17.40;99.90
7704;DHT22;3894;49.700;10.770;2023-10-08T13:44:34;17.40;99.90
7704;DHT22;3894;49.700;10.770;2023-10-08T13:47:00;17.30;99.90
7704;DHT22;3894;49.700;10.770;2023-10-08T13:49:31;17.30;99.90
7704;DHT22;3894;49.700;10.770;2023-10-08T13:51:57;17.40;99.90
7704;DHT22;3894;49.700;10.770;2023-10-08T13:54:24;17.30;99.90
7704;DHT22;3894;49.700;10.770;2023-10-08T13:56:56;17.20;99.90
7704;DHT22;3894;49.700;10.770;2023-10-08T13:59:21;17.20;99.90
7704;DHT22;3894;49.700;10.770;2023-10-08T14:01:50;17.20;99.90
7704;DHT22;3894;49.700;10.770;2023-10-08T14:04:20;17.20;99.90
7704;DHT22;3894;49.700;10.770;2023-10-08T14:06:48;17.20;99.90
7704;DHT22;3894;49.700;10.770;2023-10-08T14:09:18;17.20;99.90
7704;DHT22;3894;49.700;10.770;2023-10-08T14:12:03;17.20;99.90
7704;DHT22;3894;49.700;10.770;2023-10-08T14:14:29;17.20;99.90
7704;DHT22;3894;49.700;10.770;2023-10-08T14:16:55;17.20;99.90
7704;DHT22;3894;49.700;10.770;2023-10-08T14:19:25;17.20;99.90
7704;DHT22;3894;49.700;10.770;2023-10-08T14:22:04;17.10;99.90
7704;DHT22;3894;49.700;10.770;2023-10-08T14:24:33;17.10;99.90
7704;DHT22;3894;49.700;10.770;2023-10-08T14:27:06;17.10;99.90
7704;DHT22;3894;49.700;10.770;2023-10-08T14:29:40;17.10;99.90
7704;DHT22;3894;49.700;10.770;2023-10-08T14:32:10;17.00;99.90
7704;DHT22;3894;49.700;10.770;2023-10-08T14:34:38;17.00;99.90
7704;DHT22;3894;49.700;10.770;2023-10-08T14:37:13;17.00;99.90
7704;DHT22;3894;49.700;10.770;2023-10-08T14:39:57;17.10;99.90
7704;DHT22;3894;49.700;10.770;2023-10-08T14:42:41;17.10;99.90
7704;DHT22;3894;49.700;10.770;2023-10-08T14:45:35;17.10;99.90
7704;DHT22;3894;49.700;10.770;2023-10-08T14:48:01;17.10;99.90
7704;DHT22;3894;49.700;10.770;2023-10-08T14:50:27;17.10;99.90
7704;DHT22;3894;49.700;10.770;2023-10-08T14:52:56;17.00;99.90
7704;DHT22;3894;49.700;10.770;2023-10-08T14:55:23;17.00;99.90
7704;DHT22;3894;49.700;10.770;2023-10-08T14:57:49;17.00;99.90
7704;DHT22;3894;49.700;10.770;2023-10-08T15:00:18;17.00;99.90
7704;DHT22;3894;49.700;10.770;2023-10-08T15:02:51;16.90;99.90
7704;DHT22;3894;49.700;10.770;2023-10-08T15:05:17;16.90;99.90
7704;DHT22;3894;49.700;10.770;2023-10-08T15:07:42;16.90;99.90
7704;DHT22;3894;49.700;10.770;2023-10-08T15:10:08;16.80;99.90
7704;DHT22;3894;49.700;10.770;2023-10-08T15:12:34;16.80;99.90
7704;DHT22;3894;49.700;10.770;2023-10-08T15:15:00;16.80;99.90
7704;DHT22;3894;49.700;10.770;2023-10-08T15:17:44;16.70;99.90
7704;DHT22;3894;49.700;10.770;2023-10-08T15:20:11;16.70;99.90
7704;DHT22;3894;49.700;10.770;2023-10-08T15:22:45;16.60;99.90
7704;DHT22;3894;49.700;10.770;2023-10-08T15:25:12;16.60;99.90
7704;DHT22;3894;49.700;10.770;2023-10-08T15:27:41;16.50;99.90
7704;DHT22;3894;49.700;10.770;2023-10-08T15:30:10;16.50;99.90
7704;DHT22;3894;49.700;10.770;2023-10-08T15:32:42;16.50;99.90
7704;DHT22;3894;49.700;10.770;2023-10-08T15:35:13;16.50;99.90
7704;DHT22;3894;49.700;10.770;2023-10-08T15:37:46;16.40;99.90
7704;DHT22;3894;49.700;10.770;2023-10-08T15:40:12;16.40;99.90
7704;DHT22;3894;49.700;10.770;2023-10-08T15:42:43;16.40;99.90
7704;DHT22;3894;49.700;10.770;2023-10-08T15:45:10;16.40;99.90
7704;DHT22;3894;49.700;10.770;2023-10-08T15:47:38;16.50;99.90
7704;DHT22;3894;49.700;10.770;2023-10-08T15:50:04;16.50;99.90
7704;DHT22;3894;49.700;10.770;2023-10-08T15:52:30;16.50;99.90
7704;DHT22;3894;49.700;10.770;2023-10-08T15:54:57;16.50;99.90
7704;DHT22;3894;49.700;10.770;2023-10-08T15:57:23;16.50;99.90
7704;DHT22;3894;49.700;10.770;2023-10-08T15:59:48;16.40;99.90
7704;DHT22;3894;49.700;10.770;2023-10-08T16:02:15;16.40;99.90
7704;DHT22;3894;49.700;10.770;2023-10-08T16:04:41;16.30;99.90
7704;DHT22;3894;49.700;10.770;2023-10-08T16:07:07;16.30;99.90
7704;DHT22;3894;49.700;10.770;2023-10-08T16:09:32;16.20;99.90
7704;DHT22;3894;49.700;10.770;2023-10-08T16:11:58;16.20;99.90
7704;DHT22;3894;49.700;10.770;2023-10-08T16:14:24;16.10;99.90
7704;DHT22;3894;49.700;10.770;2023-10-08T16:16:50;16.10;99.90
7704;DHT22;3894;49.700;10.770;2023-10-08T16:19:16;16.10;99.90
7704;DHT22;3894;49.700;10.770;2023-10-08T16:21:43;16.00;99.90
7704;DHT22;3894;49.700;10.770;2023-10-08T16:24:10;16.00;99.90
7704;DHT22;3894;49.700;10.770;2023-10-08T16:26:41;16.00;99.90
7704;DHT22;3894;49.700;10.770;2023-10-08T16:29:09;15.90;99.90
7704;DHT22;3894;49.700;10.770;2023-10-08T16:31:38;15.90;99.90
7704;DHT22;3894;49.700;10.770;2023-10-08T16:34:08;15.90;99.90
7704;DHT22;3894;49.700;10.770;2023-10-08T16:36:41;15.80;99.90
7704;DHT22;3894;49.700;10.770;2023-10-08T16:39:09;15.80;99.90
7704;DHT22;3894;49.700;10.770;2023-10-08T16:41:37;15.80;99.90
7704;DHT22;3894;49.700;10.770;2023-10-08T16:44:05;15.80;99.90
7704;DHT22;3894;49.700;10.770;2023-10-08T16:46:31;15.70;99.90
7704;DHT22;3894;49.700;10.770;2023-10-08T16:48:56;15.70;99.90
7704;DHT22;3894;49.700;10.770;2023-10-08T16:51:22;15.60;99.90
7704;DHT22;3894;49.700;10.770;2023-10-08T16:53:47;15.60;99.90
7704;DHT22;3894;49.700;10.770;2023-10-08T16:56:13;15.60;99.90
7704;DHT22;3894;49.700;10.770;2023-10-08T16:58:39;15.50;99.90
7704;DHT22;3894;49.700;10.770;2023-10-08T17:01:04;15.50;99.90
7704;DHT22;3894;49.700;10.770;2023-10-08T17:03:38;15.50;99.90
7704;DHT22;3894;49.700;10.770;2023-10-08T17:06:03;15.40;99.90
7704;DHT22;3894;49.700;10.770;2023-10-08T17:08:35;15.40;99.90
7704;DHT22;3894;49.700;10.770;2023-10-08T17:11:04;15.40;99.90
7704;DHT22;3894;49.700;10.770;2023-10-08T17:13:31;15.30;99.90